sensor_id;sensor_type;location;lat;lon;timestamp;P1;durP1;ratioP1;P2;durP2;ratioP2
12286;SDS011;6206;53.100;11.098;2022-08-01T00:01:22;6.75;;;6.05;;
12286;SDS011;6206;53.100;11.098;2022-08-01T00:03:49;6.72;;;5.78;;
12286;SDS011;6206;53.100;11.098;2022-08-01T00:06:17;7.27;;;5.90;;
12286;SDS011;6206;53.100;11.098;2022-08-01T00:08:44;8.02;;;6.10;;
12286;SDS011;6206;53.100;11.098;2022-08-01T00:11:10;6.57;;;5.70;;
12286;SDS011;6206;53.100;11.098;2022-08-01T00:13:37;6.63;;;5.55;;
12286;SDS011;6206;53.100;11.098;2022-08-01T00:16:04;6.80;;;6.10;;
12286;SDS011;6206;53.100;11.098;2022-08-01T00:18:30;7.05;;;5.78;;
12286;SDS011;6206;53.100;11.098;2022-08-01T00:20:57;7.38;;;6.28;;
12286;SDS011;6206;53.100;11.098;2022-08-01T00:23:25;7.95;;;5.97;;
12286;SDS011;6206;53.100;11.098;2022-08-01T00:25:51;7.10;;;6.07;;
12286;SDS011;6206;53.100;11.098;2022-08-01T00:28:18;7.75;;;6.20;;
12286;SDS011;6206;53.100;11.098;2022-08-01T00:30:45;6.82;;;6.15;;
12286;SDS011;6206;53.100;11.098;2022-08-01T00:33:11;6.70;;;6.00;;
12286;SDS011;6206;53.100;11.098;2022-08-01T00:35:38;7.05;;;5.90;;
12286;SDS011;6206;53.100;11.098;2022-08-01T00:38:04;6.75;;;5.55;;
12286;SDS011;6206;53.100;11.098;2022-08-01T00:40:32;7.45;;;5.40;;
12286;SDS011;6206;53.100;11.098;2022-08-01T00:42:59;7.22;;;5.70;;
12286;SDS011;6206;53.100;11.098;2022-08-01T00:45:26;6.60;;;5.90;;
12286;SDS011;6206;53.100;11.098;2022-08-01T00:47:53;6.30;;;5.50;;
12286;SDS011;6206;53.100;11.098;2022-08-01T00:50:19;7.53;;;6.10;;
12286;SDS011;6206;53.100;11.098;2022-08-01T00:52:46;8.38;;;5.85;;
12286;SDS011;6206;53.100;11.098;2022-08-01T00:55:13;6.75;;;5.72;;
12286;SDS011;6206;53.100;11.098;2022-08-01T00:57:41;8.90;;;5.90;;
12286;SDS011;6206;53.100;11.098;2022-08-01T01:00:08;8.45;;;5.60;;
12286;SDS011;6206;53.100;11.098;2022-08-01T01:02:36;6.68;;;5.97;;
12286;SDS011;6206;53.100;11.098;2022-08-01T01:05:03;6.93;;;5.80;;
12286;SDS011;6206;53.100;11.098;2022-08-01T01:07:31;7.28;;;6.20;;
12286;SDS011;6206;53.100;11.098;2022-08-01T01:10:03;6.88;;;6.13;;
12286;SDS011;6206;53.100;11.098;2022-08-01T01:12:36;7.07;;;6.28;;
12286;SDS011;6206;53.100;11.098;2022-08-01T01:15:09;6.75;;;6.05;;
12286;SDS011;6206;53.100;11.098;2022-08-01T01:17:41;7.03;;;6.20;;
12286;SDS011;6206;53.100;11.098;2022-08-01T01:20:12;8.77;;;6.38;;
12286;SDS011;6206;53.100;11.098;2022-08-01T01:22:46;8.05;;;6.70;;
12286;SDS011;6206;53.100;11.098;2022-08-01T01:25:25;8.02;;;6.60;;
12286;SDS011;6206;53.100;11.098;2022-08-01T01:28:08;7.97;;;6.40;;
12286;SDS011;6206;53.100;11.098;2022-08-01T01:30:40;7.85;;;6.90;;
12286;SDS011;6206;53.100;11.098;2022-08-01T01:33:11;9.00;;;7.15;;
12286;SDS011;6206;53.100;11.098;2022-08-01T01:35:41;9.03;;;7.43;;
12286;SDS011;6206;53.100;11.098;2022-08-01T01:38:14;9.07;;;7.32;;
12286;SDS011;6206;53.100;11.098;2022-08-01T01:40:44;10.38;;;7.30;;
12286;SDS011;6206;53.100;11.098;2022-08-01T01:43:12;8.90;;;7.13;;
12286;SDS011;6206;53.100;11.098;2022-08-01T01:45:41;8.57;;;7.60;;
12286;SDS011;6206;53.100;11.098;2022-08-01T01:48:10;9.30;;;7.65;;
12286;SDS011;6206;53.100;11.098;2022-08-01T01:50:40;9.65;;;7.43;;
12286;SDS011;6206;53.100;11.098;2022-08-01T01:53:08;9.32;;;7.32;;
12286;SDS011;6206;53.100;11.098;2022-08-01T01:55:38;10.32;;;7.38;;
12286;SDS011;6206;53.100;11.098;2022-08-01T01:58:06;7.63;;;6.63;;
12286;SDS011;6206;53.100;11.098;2022-08-01T02:00:34;10.23;;;6.50;;
12286;SDS011;6206;53.100;11.098;2022-08-01T02:03:03;8.82;;;7.13;;
12286;SDS011;6206;53.100;11.098;2022-08-01T02:05:32;7.55;;;6.60;;
12286;SDS011;6206;53.100;11.098;2022-08-01T02:08:01;7.27;;;6.53;;
12286;SDS011;6206;53.100;11.098;2022-08-01T02:10:29;8.30;;;6.82;;
12286;SDS011;6206;53.100;11.098;2022-08-01T02:12:58;7.75;;;6.95;;
12286;SDS011;6206;53.100;11.098;2022-08-01T02:15:28;8.68;;;6.90;;
12286;SDS011;6206;53.100;11.098;2022-08-01T02:17:56;8.52;;;6.95;;
12286;SDS011;6206;53.100;11.098;2022-08-01T02:20:25;8.33;;;6.57;;
12286;SDS011;6206;53.100;11.098;2022-08-01T02:22:53;8.35;;;7.00;;
12286;SDS011;6206;53.100;11.098;2022-08-01T02:25:27;8.60;;;6.88;;
12286;SDS011;6206;53.100;11.098;2022-08-01T02:27:59;7.85;;;6.70;;
12286;SDS011;6206;53.100;11.098;2022-08-01T02:30:30;8.60;;;6.67;;
12286;SDS011;6206;53.100;11.098;2022-08-01T02:33:02;7.57;;;6.78;;
12286;SDS011;6206;53.100;11.098;2022-08-01T02:35:33;8.27;;;6.53;;
12286;SDS011;6206;53.100;11.098;2022-08-01T02:38:03;7.75;;;6.90;;
12286;SDS011;6206;53.100;11.098;2022-08-01T02:40:32;8.03;;;7.00;;
12286;SDS011;6206;53.100;11.098;2022-08-01T02:43:03;8.20;;;6.63;;
12286;SDS011;6206;53.100;11.098;2022-08-01T02:45:31;9.65;;;7.00;;
12286;SDS011;6206;53.100;11.098;2022-08-01T02:48:03;8.45;;;6.40;;
12286;SDS011;6206;53.100;11.098;2022-08-01T02:50:37;8.15;;;6.90;;
12286;SDS011;6206;53.100;11.098;2022-08-01T02:53:06;8.70;;;6.07;;
12286;SDS011;6206;53.100;11.098;2022-08-01T02:55:35;7.70;;;6.28;;
12286;SDS011;6206;53.100;11.098;2022-08-01T02:58:04;8.07;;;6.20;;
12286;SDS011;6206;53.100;11.098;2022-08-01T03:00:32;7.68;;;6.78;;
12286;SDS011;6206;53.100;11.098;2022-08-01T03:03:00;7.70;;;6.15;;
12286;SDS011;6206;53.100;11.098;2022-08-01T03:05:29;8.07;;;6.50;;
12286;SDS011;6206;53.100;11.098;2022-08-01T03:07:58;6.72;;;5.80;;
12286;SDS011;6206;53.100;11.098;2022-08-01T03:10:26;7.05;;;5.57;;
12286;SDS011;6206;53.100;11.098;2022-08-01T03:12:54;8.32;;;5.95;;
12286;SDS011;6206;53.100;11.098;2022-08-01T03:15:23;7.07;;;6.10;;
12286;SDS011;6206;53.100;11.098;2022-08-01T03:17:52;8.52;;;6.30;;
12286;SDS011;6206;53.100;11.098;2022-08-01T03:20:21;6.57;;;5.80;;
12286;SDS011;6206;53.100;11.098;2022-08-01T03:22:50;8.00;;;5.70;;
12286;SDS011;6206;53.100;11.098;2022-08-01T03:25:20;7.45;;;5.63;;
12286;SDS011;6206;53.100;11.098;2022-08-01T03:27:50;6.45;;;5.80;;
12286;SDS011;6206;53.100;11.098;2022-08-01T03:30:21;6.53;;;5.20;;
12286;SDS011;6206;53.100;11.098;2022-08-01T03:32:49;7.53;;;5.70;;
12286;SDS011;6206;53.100;11.098;2022-08-01T03:35:16;5.60;;;4.93;;
12286;SDS011;6206;53.100;11.098;2022-08-01T03:37:44;6.45;;;4.93;;
12286;SDS011;6206;53.100;11.098;2022-08-01T03:40:13;5.47;;;4.77;;
12286;SDS011;6206;53.100;11.098;2022-08-01T03:42:48;5.20;;;4.70;;
12286;SDS011;6206;53.100;11.098;2022-08-01T03:45:18;6.17;;;4.60;;
12286;SDS011;6206;53.100;11.098;2022-08-01T03:47:49;6.90;;;4.65;;
12286;SDS011;6206;53.100;11.098;2022-08-01T03:50:26;6.13;;;4.85;;
12286;SDS011;6206;53.100;11.098;2022-08-01T03:52:57;5.32;;;4.60;;
12286;SDS011;6206;53.100;11.098;2022-08-01T03:55:25;6.15;;;4.57;;
12286;SDS011;6206;53.100;11.098;2022-08-01T03:57:53;5.15;;;4.65;;
12286;SDS011;6206;53.100;11.098;2022-08-01T04:00:21;6.68;;;4.78;;
12286;SDS011;6206;53.100;11.098;2022-08-01T04:02:49;5.85;;;4.82;;
12286;SDS011;6206;53.100;11.098;2022-08-01T04:05:16;5.35;;;4.40;;
12286;SDS011;6206;53.100;11.098;2022-08-01T04:07:45;5.10;;;4.60;;
12286;SDS011;6206;53.100;11.098;2022-08-01T04:10:13;6.40;;;4.68;;
12286;SDS011;6206;53.100;11.098;2022-08-01T04:12:39;5.57;;;5.00;;
12286;SDS011;6206;53.100;11.098;2022-08-01T04:15:08;5.45;;;4.40;;
12286;SDS011;6206;53.100;11.098;2022-08-01T04:17:34;6.40;;;4.63;;
12286;SDS011;6206;53.100;11.098;2022-08-01T04:20:01;5.15;;;4.63;;
12286;SDS011;6206;53.100;11.098;2022-08-01T04:22:28;5.30;;;4.67;;
12286;SDS011;6206;53.100;11.098;2022-08-01T04:24:55;6.13;;;4.47;;
12286;SDS011;6206;53.100;11.098;2022-08-01T04:27:27;6.00;;;5.00;;
12286;SDS011;6206;53.100;11.098;2022-08-01T04:29:57;6.00;;;4.53;;
12286;SDS011;6206;53.100;11.098;2022-08-01T04:32:27;6.00;;;4.80;;
12286;SDS011;6206;53.100;11.098;2022-08-01T04:34:59;6.18;;;4.88;;
12286;SDS011;6206;53.100;11.098;2022-08-01T04:37:31;6.43;;;4.57;;
12286;SDS011;6206;53.100;11.098;2022-08-01T04:39:58;5.55;;;4.95;;
12286;SDS011;6206;53.100;11.098;2022-08-01T04:42:26;6.13;;;4.72;;
12286;SDS011;6206;53.100;11.098;2022-08-01T04:44:53;6.83;;;4.90;;
12286;SDS011;6206;53.100;11.098;2022-08-01T04:47:20;5.35;;;4.50;;
12286;SDS011;6206;53.100;11.098;2022-08-01T04:49:49;5.10;;;4.60;;
12286;SDS011;6206;53.100;11.098;2022-08-01T04:52:16;5.72;;;4.20;;
12286;SDS011;6206;53.100;11.098;2022-08-01T04:54:43;5.95;;;4.18;;
12286;SDS011;6206;53.100;11.098;2022-08-01T04:57:11;5.38;;;4.05;;
12286;SDS011;6206;53.100;11.098;2022-08-01T04:59:42;5.03;;;3.83;;
12286;SDS011;6206;53.100;11.098;2022-08-01T05:02:11;4.07;;;3.50;;
12286;SDS011;6206;53.100;11.098;2022-08-01T05:04:39;5.33;;;3.43;;
12286;SDS011;6206;53.100;11.098;2022-08-01T05:07:08;3.90;;;3.50;;
12286;SDS011;6206;53.100;11.098;2022-08-01T05:09:35;4.30;;;3.80;;
12286;SDS011;6206;53.100;11.098;2022-08-01T05:12:03;4.65;;;3.90;;
12286;SDS011;6206;53.100;11.098;2022-08-01T05:14:31;6.13;;;3.85;;
12286;SDS011;6206;53.100;11.098;2022-08-01T05:16:58;6.03;;;3.80;;
12286;SDS011;6206;53.100;11.098;2022-08-01T05:19:28;4.68;;;4.18;;
12286;SDS011;6206;53.100;11.098;2022-08-01T05:21:55;5.07;;;3.80;;
12286;SDS011;6206;53.100;11.098;2022-08-01T05:24:23;7.95;;;4.40;;
12286;SDS011;6206;53.100;11.098;2022-08-01T05:26:49;5.88;;;4.32;;
12286;SDS011;6206;53.100;11.098;2022-08-01T05:29:16;5.07;;;4.50;;
12286;SDS011;6206;53.100;11.098;2022-08-01T05:31:43;5.10;;;4.60;;
12286;SDS011;6206;53.100;11.098;2022-08-01T05:34:09;6.70;;;5.03;;
12286;SDS011;6206;53.100;11.098;2022-08-01T05:36:36;6.65;;;5.15;;
12286;SDS011;6206;53.100;11.098;2022-08-01T05:39:03;7.30;;;5.00;;
12286;SDS011;6206;53.100;11.098;2022-08-01T05:41:31;5.50;;;4.63;;
12286;SDS011;6206;53.100;11.098;2022-08-01T05:43:57;6.32;;;5.10;;
12286;SDS011;6206;53.100;11.098;2022-08-01T05:46:24;7.90;;;4.88;;
12286;SDS011;6206;53.100;11.098;2022-08-01T05:48:51;5.93;;;4.80;;
12286;SDS011;6206;53.100;11.098;2022-08-01T05:51:17;6.50;;;5.15;;
12286;SDS011;6206;53.100;11.098;2022-08-01T05:53:44;5.95;;;4.78;;
12286;SDS011;6206;53.100;11.098;2022-08-01T05:56:10;5.40;;;4.55;;
12286;SDS011;6206;53.100;11.098;2022-08-01T05:58:38;6.03;;;4.95;;
12286;SDS011;6206;53.100;11.098;2022-08-01T06:01:05;7.22;;;4.70;;
12286;SDS011;6206;53.100;11.098;2022-08-01T06:03:32;5.75;;;4.80;;
12286;SDS011;6206;53.100;11.098;2022-08-01T06:05:58;6.03;;;4.70;;
12286;SDS011;6206;53.100;11.098;2022-08-01T06:08:25;4.80;;;4.23;;
12286;SDS011;6206;53.100;11.098;2022-08-01T06:10:52;4.50;;;4.10;;
12286;SDS011;6206;53.100;11.098;2022-08-01T06:13:19;4.95;;;3.95;;
12286;SDS011;6206;53.100;11.098;2022-08-01T06:15:47;4.15;;;3.72;;
12286;SDS011;6206;53.100;11.098;2022-08-01T06:18:13;4.72;;;3.40;;
12286;SDS011;6206;53.100;11.098;2022-08-01T06:20:40;4.45;;;3.63;;
12286;SDS011;6206;53.100;11.098;2022-08-01T06:23:07;4.85;;;3.50;;
12286;SDS011;6206;53.100;11.098;2022-08-01T06:25:34;4.68;;;3.67;;
12286;SDS011;6206;53.100;11.098;2022-08-01T06:28:01;4.18;;;3.28;;
12286;SDS011;6206;53.100;11.098;2022-08-01T06:30:28;4.78;;;3.25;;
12286;SDS011;6206;53.100;11.098;2022-08-01T06:32:56;4.82;;;3.67;;
12286;SDS011;6206;53.100;11.098;2022-08-01T06:35:23;3.63;;;3.08;;
12286;SDS011;6206;53.100;11.098;2022-08-01T06:37:50;5.32;;;3.00;;
12286;SDS011;6206;53.100;11.098;2022-08-01T06:40:17;7.15;;;3.28;;
12286;SDS011;6206;53.100;11.098;2022-08-01T06:42:43;3.25;;;2.95;;
12286;SDS011;6206;53.100;11.098;2022-08-01T06:45:12;4.50;;;2.80;;
12286;SDS011;6206;53.100;11.098;2022-08-01T06:47:40;3.42;;;2.58;;
12286;SDS011;6206;53.100;11.098;2022-08-01T06:50:09;2.88;;;2.67;;
12286;SDS011;6206;53.100;11.098;2022-08-01T06:52:38;3.95;;;2.65;;
12286;SDS011;6206;53.100;11.098;2022-08-01T06:55:05;3.63;;;2.60;;
12286;SDS011;6206;53.100;11.098;2022-08-01T06:57:31;4.32;;;2.50;;
12286;SDS011;6206;53.100;11.098;2022-08-01T07:00:00;4.40;;;2.95;;
12286;SDS011;6206;53.100;11.098;2022-08-01T07:02:30;4.93;;;3.00;;
12286;SDS011;6206;53.100;11.098;2022-08-01T07:04:57;2.75;;;2.53;;
12286;SDS011;6206;53.100;11.098;2022-08-01T07:07:26;4.97;;;2.70;;
12286;SDS011;6206;53.100;11.098;2022-08-01T07:09:53;3.47;;;2.70;;
12286;SDS011;6206;53.100;11.098;2022-08-01T07:12:19;4.68;;;2.58;;
12286;SDS011;6206;53.100;11.098;2022-08-01T07:14:46;2.60;;;2.40;;
12286;SDS011;6206;53.100;11.098;2022-08-01T07:17:13;2.93;;;2.50;;
12286;SDS011;6206;53.100;11.098;2022-08-01T07:19:39;3.17;;;2.88;;
12286;SDS011;6206;53.100;11.098;2022-08-01T07:22:06;8.68;;;3.33;;
12286;SDS011;6206;53.100;11.098;2022-08-01T07:24:34;3.92;;;2.85;;
12286;SDS011;6206;53.100;11.098;2022-08-01T07:27:00;2.90;;;2.60;;
12286;SDS011;6206;53.100;11.098;2022-08-01T07:29:27;3.20;;;2.78;;
12286;SDS011;6206;53.100;11.098;2022-08-01T07:31:54;2.60;;;2.40;;
12286;SDS011;6206;53.100;11.098;2022-08-01T07:34:22;2.97;;;2.50;;
12286;SDS011;6206;53.100;11.098;2022-08-01T07:36:50;2.78;;;2.42;;
12286;SDS011;6206;53.100;11.098;2022-08-01T07:39:16;4.32;;;2.50;;
12286;SDS011;6206;53.100;11.098;2022-08-01T07:41:44;4.03;;;2.88;;
12286;SDS011;6206;53.100;11.098;2022-08-01T07:44:11;3.20;;;2.22;;
12286;SDS011;6206;53.100;11.098;2022-08-01T07:46:39;2.17;;;1.98;;
12286;SDS011;6206;53.100;11.098;2022-08-01T07:49:05;2.33;;;2.08;;
12286;SDS011;6206;53.100;11.098;2022-08-01T07:51:32;4.03;;;2.33;;
12286;SDS011;6206;53.100;11.098;2022-08-01T07:53:59;3.35;;;2.50;;
12286;SDS011;6206;53.100;11.098;2022-08-01T07:56:25;2.95;;;2.63;;
12286;SDS011;6206;53.100;11.098;2022-08-01T07:58:53;3.60;;;2.88;;
12286;SDS011;6206;53.100;11.098;2022-08-01T08:01:20;3.83;;;3.53;;
12286;SDS011;6206;53.100;11.098;2022-08-01T08:03:47;3.30;;;2.88;;
12286;SDS011;6206;53.100;11.098;2022-08-01T08:06:13;3.10;;;2.40;;
12286;SDS011;6206;53.100;11.098;2022-08-01T08:08:40;3.20;;;2.90;;
12286;SDS011;6206;53.100;11.098;2022-08-01T08:11:07;3.50;;;2.60;;
12286;SDS011;6206;53.100;11.098;2022-08-01T08:13:33;4.82;;;4.10;;
12286;SDS011;6206;53.100;11.098;2022-08-01T08:16:01;2.05;;;1.52;;
12286;SDS011;6206;53.100;11.098;2022-08-01T08:18:28;1.88;;;1.60;;
12286;SDS011;6206;53.100;11.098;2022-08-01T08:20:55;3.97;;;1.60;;
12286;SDS011;6206;53.100;11.098;2022-08-01T08:23:21;2.15;;;1.67;;
12286;SDS011;6206;53.100;11.098;2022-08-01T08:26:06;1.98;;;1.42;;
12286;SDS011;6206;53.100;11.098;2022-08-01T08:28:32;1.60;;;1.40;;
12286;SDS011;6206;53.100;11.098;2022-08-01T08:30:59;1.60;;;1.50;;
12286;SDS011;6206;53.100;11.098;2022-08-01T08:33:27;4.55;;;1.70;;
12286;SDS011;6206;53.100;11.098;2022-08-01T08:35:54;3.75;;;2.13;;
12286;SDS011;6206;53.100;11.098;2022-08-01T08:38:20;2.80;;;1.77;;
12286;SDS011;6206;53.100;11.098;2022-08-01T08:40:47;1.40;;;1.30;;
12286;SDS011;6206;53.100;11.098;2022-08-01T08:43:14;1.38;;;1.27;;
12286;SDS011;6206;53.100;11.098;2022-08-01T08:45:41;1.58;;;1.30;;
12286;SDS011;6206;53.100;11.098;2022-08-01T08:48:09;1.38;;;1.10;;
12286;SDS011;6206;53.100;11.098;2022-08-01T08:50:38;1.65;;;1.30;;
12286;SDS011;6206;53.100;11.098;2022-08-01T08:53:06;1.38;;;1.10;;
12286;SDS011;6206;53.100;11.098;2022-08-01T08:55:36;1.70;;;1.08;;
12286;SDS011;6206;53.100;11.098;2022-08-01T08:58:03;1.10;;;1.00;;
12286;SDS011;6206;53.100;11.098;2022-08-01T09:00:31;1.08;;;0.90;;
12286;SDS011;6206;53.100;11.098;2022-08-01T09:02:58;1.20;;;1.00;;
12286;SDS011;6206;53.100;11.098;2022-08-01T09:05:24;1.08;;;0.82;;
12286;SDS011;6206;53.100;11.098;2022-08-01T09:07:53;1.52;;;1.00;;
12286;SDS011;6206;53.100;11.098;2022-08-01T09:10:20;1.30;;;1.00;;
12286;SDS011;6206;53.100;11.098;2022-08-01T09:13:02;1.90;;;0.90;;
12286;SDS011;6206;53.100;11.098;2022-08-01T09:15:42;1.83;;;1.00;;
12286;SDS011;6206;53.100;11.098;2022-08-01T09:20:56;0.82;;;0.77;;
12286;SDS011;6206;53.100;11.098;2022-08-01T09:23:36;2.78;;;1.23;;
12286;SDS011;6206;53.100;11.098;2022-08-01T09:26:07;2.13;;;1.30;;
12286;SDS011;6206;53.100;11.098;2022-08-01T09:28:34;1.67;;;0.77;;
12286;SDS011;6206;53.100;11.098;2022-08-01T09:31:05;1.60;;;0.77;;
12286;SDS011;6206;53.100;11.098;2022-08-01T09:33:46;0.85;;;0.82;;
12286;SDS011;6206;53.100;11.098;2022-08-01T09:36:14;1.00;;;0.80;;
12286;SDS011;6206;53.100;11.098;2022-08-01T09:38:42;0.90;;;0.80;;
12286;SDS011;6206;53.100;11.098;2022-08-01T09:41:09;2.40;;;0.82;;
12286;SDS011;6206;53.100;11.098;2022-08-01T09:43:37;3.47;;;1.85;;
12286;SDS011;6206;53.100;11.098;2022-08-01T09:46:04;1.70;;;1.05;;
12286;SDS011;6206;53.100;11.098;2022-08-01T09:48:34;4.03;;;1.20;;
12286;SDS011;6206;53.100;11.098;2022-08-01T09:51:02;2.65;;;1.38;;
12286;SDS011;6206;53.100;11.098;2022-08-01T09:53:37;1.70;;;1.50;;
12286;SDS011;6206;53.100;11.098;2022-08-01T09:56:12;1.92;;;1.40;;
12286;SDS011;6206;53.100;11.098;2022-08-01T09:58:49;3.00;;;1.58;;
12286;SDS011;6206;53.100;11.098;2022-08-01T10:01:16;3.40;;;1.65;;
12286;SDS011;6206;53.100;11.098;2022-08-01T10:03:46;4.10;;;1.88;;
12286;SDS011;6206;53.100;11.098;2022-08-01T10:06:19;1.93;;;1.50;;
12286;SDS011;6206;53.100;11.098;2022-08-01T10:08:46;2.03;;;1.80;;
12286;SDS011;6206;53.100;11.098;2022-08-01T10:11:15;2.70;;;1.60;;
12286;SDS011;6206;53.100;11.098;2022-08-01T10:13:42;3.78;;;1.67;;
12286;SDS011;6206;53.100;11.098;2022-08-01T10:16:09;3.90;;;1.90;;
12286;SDS011;6206;53.100;11.098;2022-08-01T10:18:38;2.47;;;1.45;;
12286;SDS011;6206;53.100;11.098;2022-08-01T10:21:07;2.00;;;1.38;;
12286;SDS011;6206;53.100;11.098;2022-08-01T10:23:36;2.67;;;1.52;;
12286;SDS011;6206;53.100;11.098;2022-08-01T10:26:04;2.70;;;1.90;;
12286;SDS011;6206;53.100;11.098;2022-08-01T10:28:34;3.00;;;1.80;;
12286;SDS011;6206;53.100;11.098;2022-08-01T10:31:02;2.83;;;1.90;;
12286;SDS011;6206;53.100;11.098;2022-08-01T10:33:29;2.25;;;1.83;;
12286;SDS011;6206;53.100;11.098;2022-08-01T10:35:57;4.72;;;2.00;;
12286;SDS011;6206;53.100;11.098;2022-08-01T10:38:24;5.00;;;2.00;;
12286;SDS011;6206;53.100;11.098;2022-08-01T10:40:50;4.65;;;2.00;;
12286;SDS011;6206;53.100;11.098;2022-08-01T10:43:19;2.80;;;2.00;;
12286;SDS011;6206;53.100;11.098;2022-08-01T10:45:47;2.47;;;1.73;;
12286;SDS011;6206;53.100;11.098;2022-08-01T10:48:15;4.27;;;1.90;;
12286;SDS011;6206;53.100;11.098;2022-08-01T10:50:46;6.60;;;1.92;;
12286;SDS011;6206;53.100;11.098;2022-08-01T10:53:16;3.13;;;1.70;;
12286;SDS011;6206;53.100;11.098;2022-08-01T10:55:48;3.03;;;1.70;;
12286;SDS011;6206;53.100;11.098;2022-08-01T10:58:20;2.15;;;1.70;;
12286;SDS011;6206;53.100;11.098;2022-08-01T11:00:49;2.35;;;1.60;;
12286;SDS011;6206;53.100;11.098;2022-08-01T11:03:44;3.40;;;2.00;;
12286;SDS011;6206;53.100;11.098;2022-08-01T11:06:23;5.05;;;2.00;;
12286;SDS011;6206;53.100;11.098;2022-08-01T11:08:51;3.80;;;2.17;;
12286;SDS011;6206;53.100;11.098;2022-08-01T11:11:20;3.92;;;1.90;;
12286;SDS011;6206;53.100;11.098;2022-08-01T11:14:03;3.35;;;1.98;;
12286;SDS011;6206;53.100;11.098;2022-08-01T11:16:36;2.55;;;1.88;;
12286;SDS011;6206;53.100;11.098;2022-08-01T11:19:03;4.97;;;1.95;;
12286;SDS011;6206;53.100;11.098;2022-08-01T11:27:29;4.28;;;2.00;;
12286;SDS011;6206;53.100;11.098;2022-08-01T11:32:52;3.90;;;2.20;;
12286;SDS011;6206;53.100;11.098;2022-08-01T11:35:20;5.57;;;2.08;;
12286;SDS011;6206;53.100;11.098;2022-08-01T11:37:50;4.25;;;2.00;;
12286;SDS011;6206;53.100;11.098;2022-08-01T11:40:18;3.22;;;2.08;;
12286;SDS011;6206;53.100;11.098;2022-08-01T11:42:46;3.38;;;1.92;;
12286;SDS011;6206;53.100;11.098;2022-08-01T11:45:13;3.95;;;1.67;;
12286;SDS011;6206;53.100;11.098;2022-08-01T11:47:43;5.28;;;1.90;;
12286;SDS011;6206;53.100;11.098;2022-08-01T11:50:35;6.00;;;1.95;;
12286;SDS011;6206;53.100;11.098;2022-08-01T11:53:02;7.60;;;2.00;;
12286;SDS011;6206;53.100;11.098;2022-08-01T11:55:31;3.65;;;1.80;;
12286;SDS011;6206;53.100;11.098;2022-08-01T11:57:59;2.28;;;1.50;;
12286;SDS011;6206;53.100;11.098;2022-08-01T12:00:27;3.95;;;1.60;;
12286;SDS011;6206;53.100;11.098;2022-08-01T12:02:59;3.38;;;1.60;;
12286;SDS011;6206;53.100;11.098;2022-08-01T12:05:27;3.03;;;1.30;;
12286;SDS011;6206;53.100;11.098;2022-08-01T12:07:56;4.50;;;1.57;;
12286;SDS011;6206;53.100;11.098;2022-08-01T12:10:24;4.57;;;1.60;;
12286;SDS011;6206;53.100;11.098;2022-08-01T12:12:52;3.90;;;1.53;;
12286;SDS011;6206;53.100;11.098;2022-08-01T12:15:20;3.42;;;1.30;;
12286;SDS011;6206;53.100;11.098;2022-08-01T12:17:48;3.28;;;1.40;;
12286;SDS011;6206;53.100;11.098;2022-08-01T12:20:18;3.53;;;1.40;;
12286;SDS011;6206;53.100;11.098;2022-08-01T12:22:46;2.78;;;1.23;;
12286;SDS011;6206;53.100;11.098;2022-08-01T12:25:15;3.70;;;1.40;;
12286;SDS011;6206;53.100;11.098;2022-08-01T12:27:43;3.22;;;1.33;;
12286;SDS011;6206;53.100;11.098;2022-08-01T12:30:11;2.25;;;1.20;;
12286;SDS011;6206;53.100;11.098;2022-08-01T12:32:40;3.60;;;1.50;;
12286;SDS011;6206;53.100;11.098;2022-08-01T12:35:08;3.40;;;1.45;;
12286;SDS011;6206;53.100;11.098;2022-08-01T12:37:36;3.80;;;1.30;;
12286;SDS011;6206;53.100;11.098;2022-08-01T12:40:10;3.45;;;1.20;;
12286;SDS011;6206;53.100;11.098;2022-08-01T12:42:41;1.77;;;1.10;;
12286;SDS011;6206;53.100;11.098;2022-08-01T12:45:09;2.47;;;1.10;;
12286;SDS011;6206;53.100;11.098;2022-08-01T12:47:38;3.20;;;0.97;;
12286;SDS011;6206;53.100;11.098;2022-08-01T12:50:11;2.75;;;1.10;;
12286;SDS011;6206;53.100;11.098;2022-08-01T12:52:39;1.98;;;0.93;;
12286;SDS011;6206;53.100;11.098;2022-08-01T12:55:08;2.92;;;1.25;;
12286;SDS011;6206;53.100;11.098;2022-08-01T12:57:37;2.65;;;1.00;;
12286;SDS011;6206;53.100;11.098;2022-08-01T13:00:08;1.63;;;1.07;;
12286;SDS011;6206;53.100;11.098;2022-08-01T13:02:46;1.67;;;0.95;;
12286;SDS011;6206;53.100;11.098;2022-08-01T13:05:14;1.77;;;1.10;;
12286;SDS011;6206;53.100;11.098;2022-08-01T13:07:43;3.92;;;1.30;;
12286;SDS011;6206;53.100;11.098;2022-08-01T13:10:12;3.95;;;1.30;;
12286;SDS011;6206;53.100;11.098;2022-08-01T13:12:40;2.53;;;1.42;;
12286;SDS011;6206;53.100;11.098;2022-08-01T13:15:28;3.17;;;1.40;;
12286;SDS011;6206;53.100;11.098;2022-08-01T13:18:00;2.55;;;1.27;;
12286;SDS011;6206;53.100;11.098;2022-08-01T13:20:47;3.70;;;1.47;;
12286;SDS011;6206;53.100;11.098;2022-08-01T13:23:14;5.67;;;1.70;;
12286;SDS011;6206;53.100;11.098;2022-08-01T13:25:48;2.97;;;1.40;;
12286;SDS011;6206;53.100;11.098;2022-08-01T13:28:21;4.07;;;1.70;;
12286;SDS011;6206;53.100;11.098;2022-08-01T13:30:53;4.72;;;1.55;;
12286;SDS011;6206;53.100;11.098;2022-08-01T13:33:22;3.53;;;1.50;;
12286;SDS011;6206;53.100;11.098;2022-08-01T13:35:49;4.57;;;1.40;;
12286;SDS011;6206;53.100;11.098;2022-08-01T13:38:17;3.55;;;1.52;;
12286;SDS011;6206;53.100;11.098;2022-08-01T13:40:44;5.28;;;1.70;;
12286;SDS011;6206;53.100;11.098;2022-08-01T13:43:11;4.15;;;1.60;;
12286;SDS011;6206;53.100;11.098;2022-08-01T13:45:38;4.75;;;1.70;;
12286;SDS011;6206;53.100;11.098;2022-08-01T13:48:07;3.80;;;1.60;;
12286;SDS011;6206;53.100;11.098;2022-08-01T13:50:33;4.50;;;1.80;;
12286;SDS011;6206;53.100;11.098;2022-08-01T13:53:00;3.58;;;1.80;;
12286;SDS011;6206;53.100;11.098;2022-08-01T13:55:27;4.55;;;1.70;;
12286;SDS011;6206;53.100;11.098;2022-08-01T13:57:54;4.78;;;2.00;;
12286;SDS011;6206;53.100;11.098;2022-08-01T14:00:20;6.05;;;1.90;;
12286;SDS011;6206;53.100;11.098;2022-08-01T14:02:47;4.50;;;1.90;;
12286;SDS011;6206;53.100;11.098;2022-08-01T14:05:15;5.80;;;2.10;;
12286;SDS011;6206;53.100;11.098;2022-08-01T14:07:42;5.20;;;1.90;;
12286;SDS011;6206;53.100;11.098;2022-08-01T14:10:09;4.68;;;1.70;;
12286;SDS011;6206;53.100;11.098;2022-08-01T14:12:36;4.28;;;1.80;;
12286;SDS011;6206;53.100;11.098;2022-08-01T14:15:03;4.95;;;1.80;;
12286;SDS011;6206;53.100;11.098;2022-08-01T14:17:30;6.63;;;1.92;;
12286;SDS011;6206;53.100;11.098;2022-08-01T14:19:58;3.63;;;1.80;;
12286;SDS011;6206;53.100;11.098;2022-08-01T14:22:27;4.57;;;1.70;;
12286;SDS011;6206;53.100;11.098;2022-08-01T14:24:53;4.03;;;1.40;;
12286;SDS011;6206;53.100;11.098;2022-08-01T14:27:20;4.40;;;1.63;;
12286;SDS011;6206;53.100;11.098;2022-08-01T14:29:46;3.53;;;1.42;;
12286;SDS011;6206;53.100;11.098;2022-08-01T14:32:13;3.55;;;1.48;;
12286;SDS011;6206;53.100;11.098;2022-08-01T14:34:40;2.95;;;1.45;;
12286;SDS011;6206;53.100;11.098;2022-08-01T14:37:06;2.90;;;1.40;;
12286;SDS011;6206;53.100;11.098;2022-08-01T14:39:34;3.40;;;1.30;;
12286;SDS011;6206;53.100;11.098;2022-08-01T14:42:01;4.95;;;1.33;;
12286;SDS011;6206;53.100;11.098;2022-08-01T14:44:27;3.25;;;1.20;;
12286;SDS011;6206;53.100;11.098;2022-08-01T14:46:54;2.65;;;1.30;;
12286;SDS011;6206;53.100;11.098;2022-08-01T14:49:21;3.08;;;1.02;;
12286;SDS011;6206;53.100;11.098;2022-08-01T14:51:47;5.30;;;2.45;;
12286;SDS011;6206;53.100;11.098;2022-08-01T14:54:14;2.10;;;1.10;;
12286;SDS011;6206;53.100;11.098;2022-08-01T14:56:42;2.10;;;1.10;;
12286;SDS011;6206;53.100;11.098;2022-08-01T15:33:44;2.45;;;1.20;;
12286;SDS011;6206;53.100;11.098;2022-08-01T15:36:11;2.25;;;0.95;;
12286;SDS011;6206;53.100;11.098;2022-08-01T15:38:37;1.90;;;1.10;;
12286;SDS011;6206;53.100;11.098;2022-08-01T15:41:04;2.33;;;1.23;;
12286;SDS011;6206;53.100;11.098;2022-08-01T15:43:30;2.22;;;1.17;;